Portada
METAR-TAF:

METAR-TAF

Aeroports :

Orà, Algèria

latitud: 35-38N, longitud: 000-36W, altitud: 90 m

Observació

L'informe es va fer fa 28 minuts, a les 10:30 UTC
Vent 2 kt amb direcció variable
Temperatura 29°C
Humitat 62%
Pressió 1020 hPa
Visibilitat 10 km o més
Escasses núvols a una alçada de 2600 ft

METAR: DAOO 251030Z VRB02KT 9999 FEW026 29/21 Q1020

Hora: 11:58 (10:58 UTC)

Pronòstic

L'informe es va fer fa 5 hores i 58 minuts, a les 05:00 UTC
Pronòstic vàlid del 25 a les 06 UTC al 26 a les 06 UTC
Vent 2 kt amb direcció variable
Visibilitat: 8000 m
Escasses núvols a una alçada de 1600 ft
Probabilitat 40% :
Temporalment
l' 25 a les 06 UTC al 25 a les 08 UTC
Visibilitat: 2000 m
boirina
Evolucionant progressivament
l' 25 a les 12 UTC al 25 a les 15 UTC
Vent 15 kt del Nord/Nord-Est
Visibilitat 10 km o més
sense núvols per sota de 1500 mi sense presència de cumulonimbus.

TAF: DAOO 250500Z 2506/2606 VRB02KT 8000 FEW016 PROB40 TEMPO 2506/2508 2000 BR BECMG 2512/2515 03015KT CAVOK

Observacions i pronòstics meteorològics de més de 4000 aeroports (METAR i TAF).

Les estacions disponibles són els punts grocs i vermells al mapa.

Posi el ratolí al punt desitjat per veure el nom de l'estació.

Feu clic per veure les observacions i els pronòstics meteorològics.

Per canviar el mapa: feu clic els botons verds amb una creu de color negre per apropar; al botó verd amb un guió per allunyar la imatge; o en les fletxes verdes per a mapes adjacents.


METAR-TAF: